KENL

Centralia Municipal Airport

Centralia, Illinois, USA
METAR KENL 220955Z AUTO 00000KT 4SM BR CLR 20/20 A2999 RMK AO2 T01950195
Observed Flight Rules
May-22 @ 09:55 UTC (9 minutes ago) Marginal Visual Flight Rules
Visibility Clouds Conditions
4 miles
  • Clear skies
  • Mist
Temperatures Readings
Current 20°C / 68°F
Dewpoint 20°C / 68°F
Humidity 100%
Altimeter 29.99" Hg
Pressure 1016 hPa
Elevation 163
METAR KENL 220955Z AUTO 00000KT 4SM BR CLR 20/20 A2999 RMK AO2 T01950195
Observed Flight Rules
May-22 @ 09:55 UTC
(9 minutes ago)
MVFR
Clouds
  • Clear skies
Conditions
  • Mist
Temperature Dewpoint
20°C / 68°F 20°C / 68°F
Humidity Altimeter Pressure
100% 29.99" Hg 1016 hPa